createdAt,value
2023-02-15T00:02:02.321Z,26.60
2023-02-15T00:04:47.980Z,27.02
2023-02-15T00:07:20.020Z,26.35
2023-02-15T00:09:48.550Z,23.70
2023-02-15T00:12:16.665Z,23.52
2023-02-15T00:14:43.871Z,30.45
2023-02-15T00:17:10.920Z,28.60
2023-02-15T00:19:38.033Z,27.88
2023-02-15T00:22:05.774Z,29.05
2023-02-15T00:24:33.069Z,24.30
2023-02-15T00:27:00.264Z,24.65
2023-02-15T00:29:27.359Z,28.20
2023-02-15T00:31:54.560Z,27.77
2023-02-15T00:34:24.639Z,25.58
2023-02-15T00:36:52.022Z,25.27
2023-02-15T00:39:19.647Z,26.95
2023-02-15T00:41:47.730Z,23.85
2023-02-15T00:44:16.359Z,24.83
2023-02-15T00:46:43.833Z,26.48
2023-02-15T00:49:11.489Z,23.50
2023-02-15T00:51:39.067Z,28.02
2023-02-15T00:54:06.544Z,26.75
2023-02-15T00:56:33.872Z,25.60
2023-02-15T00:59:01.006Z,26.42
2023-02-15T01:01:28.026Z,28.23
2023-02-15T01:03:55.190Z,29.38
2023-02-15T01:06:22.306Z,27.77
2023-02-15T01:08:49.693Z,29.63
2023-02-15T01:11:24.891Z,27.27
2023-02-15T01:13:55.238Z,30.15
2023-02-15T01:16:23.463Z,27.90
2023-02-15T01:18:50.662Z,29.67
2023-02-15T01:21:21.876Z,37.25
2023-02-15T01:23:49.284Z,23.60
2023-02-15T01:26:16.891Z,27.52
2023-02-15T01:28:44.087Z,28.23
2023-02-15T01:31:14.039Z,29.00
2023-02-15T01:33:41.207Z,26.23
2023-02-15T01:36:08.303Z,27.52
2023-02-15T01:38:36.859Z,26.30
2023-02-15T01:41:23.364Z,28.98
2023-02-15T01:43:56.639Z,27.83
2023-02-15T01:46:29.148Z,28.55
2023-02-15T01:49:02.707Z,32.30
2023-02-15T01:51:34.065Z,25.85
2023-02-15T01:54:08.823Z,26.83
2023-02-15T01:56:38.423Z,24.48
2023-02-15T01:59:10.423Z,24.70
2023-02-15T02:01:38.714Z,29.40
2023-02-15T02:04:05.762Z,26.92
2023-02-15T02:06:36.052Z,29.35
2023-02-15T02:09:03.631Z,26.05
2023-02-15T02:11:31.008Z,24.92
2023-02-15T02:13:58.114Z,24.48
2023-02-15T02:16:26.315Z,25.20
2023-02-15T02:19:14.616Z,25.35
2023-02-15T02:21:50.475Z,26.50
2023-02-15T02:24:40.408Z,27.33
2023-02-15T02:27:25.861Z,26.42
2023-02-15T02:30:08.002Z,25.42
2023-02-15T02:33:02.393Z,28.42
2023-02-15T02:36:03.967Z,25.33
2023-02-15T02:38:56.362Z,23.60
2023-02-15T02:41:37.791Z,25.92
2023-02-15T02:44:17.097Z,23.88
2023-02-15T02:47:00.508Z,23.98
2023-02-15T02:49:43.085Z,25.08
2023-02-15T02:52:37.067Z,22.65
2023-02-15T02:55:16.751Z,29.20
2023-02-15T02:58:30.364Z,31.13
2023-02-15T03:01:10.915Z,25.08
2023-02-15T03:03:51.592Z,31.88
2023-02-15T03:06:22.427Z,26.20
2023-02-15T03:08:55.816Z,26.80
2023-02-15T03:11:22.949Z,21.23
2023-02-15T03:13:51.077Z,28.25
2023-02-15T03:16:26.959Z,24.55
2023-02-15T03:19:03.757Z,24.80
2023-02-15T03:22:05.059Z,28.88
2023-02-15T03:24:54.966Z,26.10
2023-02-15T03:27:27.843Z,23.60
2023-02-15T03:30:00.843Z,26.80
2023-02-15T03:32:31.775Z,20.92
2023-02-15T03:34:59.571Z,29.23
2023-02-15T03:37:34.349Z,26.27
2023-02-15T03:40:26.948Z,23.85
2023-02-15T03:43:13.581Z,26.02
2023-02-15T03:45:55.770Z,27.23
2023-02-15T03:48:37.777Z,23.00
2023-02-15T03:51:30.820Z,24.00
2023-02-15T03:54:00.226Z,25.27
2023-02-15T03:56:27.476Z,25.27
2023-02-15T03:59:12.953Z,28.02
2023-02-15T04:02:04.590Z,30.50
2023-02-15T04:04:40.438Z,26.67
2023-02-15T04:07:10.138Z,27.25
2023-02-15T04:09:56.254Z,23.17
2023-02-15T04:12:23.496Z,27.52
2023-02-15T04:15:09.366Z,25.55
2023-02-15T04:17:38.746Z,21.17
2023-02-15T04:20:25.219Z,25.85
2023-02-15T04:23:11.049Z,20.73
2023-02-15T04:25:38.297Z,22.95
2023-02-15T04:28:05.485Z,24.67
2023-02-15T04:30:32.510Z,22.20
2023-02-15T04:32:59.736Z,24.13
2023-02-15T04:35:26.913Z,22.13
2023-02-15T04:37:53.982Z,25.60
2023-02-15T04:40:21.023Z,26.70
2023-02-15T04:42:50.861Z,26.80
2023-02-15T04:45:18.974Z,21.70
2023-02-15T04:47:46.113Z,22.92
2023-02-15T04:50:13.592Z,25.63
2023-02-15T04:52:40.685Z,25.95
2023-02-15T04:55:08.150Z,25.70
2023-02-15T04:57:35.233Z,22.90
2023-02-15T05:00:02.356Z,23.75
2023-02-15T05:02:29.344Z,22.05
2023-02-15T05:04:56.415Z,26.20
2023-02-15T05:07:23.505Z,32.38
2023-02-15T05:09:50.526Z,31.83
2023-02-15T05:12:17.589Z,26.17
2023-02-15T05:14:44.579Z,26.58
2023-02-15T05:17:11.664Z,21.10
2023-02-15T05:19:38.692Z,26.88
2023-02-15T05:22:05.667Z,26.05
2023-02-15T05:24:51.426Z,27.02
2023-02-15T05:27:37.068Z,29.83
2023-02-15T05:30:04.476Z,24.98
2023-02-15T05:32:31.706Z,25.15
2023-02-15T05:34:58.775Z,24.40
2023-02-15T05:37:25.819Z,27.83
2023-02-15T05:39:52.855Z,25.45
2023-02-15T05:42:19.852Z,34.53
2023-02-15T05:44:46.912Z,23.25
2023-02-15T05:47:13.952Z,26.90
2023-02-15T05:49:40.954Z,24.38
2023-02-15T05:52:08.049Z,29.17
2023-02-15T05:54:35.201Z,23.83
2023-02-15T05:57:02.200Z,26.15
2023-02-15T05:59:29.245Z,27.63
2023-02-15T06:01:56.280Z,29.85
2023-02-15T06:04:23.345Z,28.50
2023-02-15T06:06:50.340Z,26.45
2023-02-15T06:09:19.408Z,25.88
2023-02-15T06:11:46.760Z,28.55
2023-02-15T06:14:13.860Z,27.35
2023-02-15T06:16:40.897Z,24.42
2023-02-15T06:19:08.119Z,29.25
2023-02-15T06:21:35.245Z,27.25
2023-02-15T06:24:02.300Z,24.27
2023-02-15T06:26:29.529Z,23.25
2023-02-15T06:28:56.660Z,22.77
2023-02-15T06:31:23.767Z,22.75
2023-02-15T06:33:50.825Z,22.00
2023-02-15T06:36:17.912Z,27.15
2023-02-15T06:38:44.940Z,26.52
2023-02-15T06:41:12.010Z,25.48
2023-02-15T06:43:40.974Z,23.50
2023-02-15T06:46:08.144Z,25.50
2023-02-15T06:48:35.334Z,24.80
2023-02-15T06:51:02.408Z,24.92
2023-02-15T06:53:30.307Z,25.20
2023-02-15T06:56:07.682Z,18.27
2023-02-15T06:58:41.805Z,19.27
2023-02-15T07:01:10.576Z,21.30
2023-02-15T07:03:37.681Z,24.17
2023-02-15T07:06:09.544Z,22.95
2023-02-15T07:08:37.503Z,16.65
2023-02-15T07:11:23.589Z,22.27
2023-02-15T07:13:50.730Z,22.65
2023-02-15T07:16:17.816Z,22.15
2023-02-15T07:18:44.833Z,22.48
2023-02-15T07:21:12.011Z,21.00
2023-02-15T07:23:40.339Z,20.88
2023-02-15T07:26:08.986Z,20.85
2023-02-15T07:28:37.371Z,18.60
2023-02-15T07:31:06.010Z,22.52
2023-02-15T07:33:34.008Z,23.05
2023-02-15T07:36:03.612Z,21.25
2023-02-15T07:38:36.505Z,23.42
2023-02-15T07:41:06.650Z,24.48
2023-02-15T07:43:39.274Z,27.88
2023-02-15T07:46:10.259Z,23.50
2023-02-15T07:48:39.314Z,25.00
2023-02-15T07:51:08.531Z,20.15
2023-02-15T07:53:37.083Z,37.22
2023-02-15T07:56:07.361Z,29.15
2023-02-15T07:58:53.141Z,21.92
2023-02-15T08:01:22.010Z,26.48
2023-02-15T08:03:49.738Z,25.85
2023-02-15T08:06:17.419Z,27.25
2023-02-15T08:08:44.929Z,25.10
2023-02-15T08:11:26.958Z,23.25
2023-02-15T08:14:24.433Z,28.38
2023-02-15T08:17:00.287Z,26.80
2023-02-15T08:19:28.752Z,25.60
2023-02-15T08:22:01.044Z,29.77
2023-02-15T08:24:31.134Z,24.20
2023-02-15T08:26:58.341Z,24.50
2023-02-15T08:29:30.084Z,27.65
2023-02-15T08:32:03.084Z,27.75
2023-02-15T08:34:33.083Z,24.92
2023-02-15T08:37:00.417Z,24.63
2023-02-15T08:39:27.694Z,21.75
2023-02-15T08:41:54.802Z,26.42
2023-02-15T08:44:22.185Z,26.02
2023-02-15T08:46:51.000Z,29.15
2023-02-15T08:49:22.709Z,30.25
2023-02-15T08:51:52.384Z,28.65
2023-02-15T08:54:22.940Z,27.50
2023-02-15T08:56:50.006Z,29.42
2023-02-15T08:59:19.770Z,29.40
2023-02-15T09:01:47.945Z,32.67
2023-02-15T09:04:16.873Z,29.20
2023-02-15T09:06:48.079Z,27.88
2023-02-15T09:09:17.269Z,34.88
2023-02-15T09:11:46.323Z,29.67
2023-02-15T09:14:19.004Z,30.38
2023-02-15T09:16:50.075Z,27.60
2023-02-15T09:19:19.358Z,31.52
2023-02-15T09:21:47.234Z,30.25
2023-02-15T09:24:16.497Z,31.73
2023-02-15T09:26:46.639Z,41.13
2023-02-15T09:29:14.684Z,33.50
2023-02-15T09:31:47.421Z,30.58
2023-02-15T09:34:17.822Z,29.40
2023-02-15T09:36:44.941Z,33.50
2023-02-15T09:39:21.095Z,28.48
2023-02-15T09:41:56.869Z,35.65
2023-02-15T09:44:42.676Z,26.42
2023-02-15T09:47:43.197Z,28.30
2023-02-15T09:50:22.224Z,27.88
2023-02-15T09:53:07.953Z,37.55
2023-02-15T09:55:52.580Z,29.58
2023-02-15T09:58:56.614Z,29.80
2023-02-15T10:02:01.229Z,44.30
2023-02-15T10:04:40.427Z,36.38
2023-02-15T10:07:26.152Z,35.85
2023-02-15T10:10:00.033Z,34.25
2023-02-15T10:12:54.847Z,30.33
2023-02-15T10:15:21.868Z,29.63
2023-02-15T10:18:06.312Z,29.05
2023-02-15T10:20:40.263Z,29.83
2023-02-15T10:23:29.998Z,27.73
2023-02-15T10:26:18.760Z,29.67
2023-02-15T10:28:58.645Z,34.25
2023-02-15T10:31:30.005Z,26.95
2023-02-15T10:34:21.851Z,29.33
2023-02-15T10:37:27.352Z,32.47
2023-02-15T10:40:10.119Z,29.15
2023-02-15T10:43:15.688Z,31.40
2023-02-15T10:46:08.302Z,30.42
2023-02-15T10:49:02.639Z,29.63
2023-02-15T10:51:38.360Z,29.42
2023-02-15T10:54:47.096Z,35.85
2023-02-15T10:57:19.889Z,30.90
2023-02-15T11:00:03.343Z,29.52
2023-02-15T11:03:27.127Z,27.15
2023-02-15T11:06:26.046Z,30.80
2023-02-15T11:09:02.969Z,29.40
2023-02-15T11:11:41.712Z,29.30
2023-02-15T11:14:39.257Z,28.95
2023-02-15T11:17:12.723Z,31.08
2023-02-15T11:20:04.059Z,28.38
2023-02-15T11:22:34.652Z,33.92
2023-02-15T11:25:15.586Z,33.95
2023-02-15T11:27:47.528Z,29.38
2023-02-15T11:30:20.413Z,32.33
2023-02-15T11:32:52.398Z,25.75
2023-02-15T11:35:41.833Z,32.25
2023-02-15T11:38:30.003Z,30.95
2023-02-15T11:41:14.862Z,33.30
2023-02-15T11:43:53.043Z,31.05
2023-02-15T11:46:22.414Z,33.03
2023-02-15T11:48:49.791Z,30.92
2023-02-15T11:51:23.644Z,31.17
2023-02-15T11:53:52.580Z,29.35
2023-02-15T11:56:27.521Z,30.42
2023-02-15T11:59:23.448Z,34.17
2023-02-15T12:01:50.491Z,35.55
2023-02-15T12:04:20.664Z,40.35
2023-02-15T12:07:10.027Z,36.08
2023-02-15T12:10:30.328Z,30.20
2023-02-15T12:13:21.002Z,28.17
2023-02-15T12:15:57.045Z,32.75
2023-02-15T12:18:57.909Z,28.65
2023-02-15T12:21:41.833Z,31.33
2023-02-15T12:24:20.237Z,31.20
2023-02-15T12:27:17.262Z,28.38
2023-02-15T12:29:58.204Z,29.45
2023-02-15T12:32:27.204Z,26.95
2023-02-15T12:35:01.552Z,29.40
2023-02-15T12:37:33.161Z,30.85
2023-02-15T12:40:02.325Z,31.42
2023-02-15T12:42:45.754Z,28.10
2023-02-15T12:45:21.634Z,24.90
2023-02-15T12:48:15.157Z,35.33
2023-02-15T12:50:44.224Z,27.08
2023-02-15T12:53:20.544Z,34.25
2023-02-15T12:55:59.122Z,25.23
2023-02-15T12:58:29.258Z,33.67
2023-02-15T13:01:17.893Z,33.47
2023-02-15T13:03:53.875Z,31.55
2023-02-15T13:06:22.760Z,31.42
2023-02-15T13:08:55.639Z,32.65
2023-02-15T13:11:35.450Z,29.40
2023-02-15T13:14:15.310Z,31.77
2023-02-15T13:16:44.142Z,31.10
2023-02-15T13:19:18.872Z,29.73
2023-02-15T13:21:48.953Z,43.50
2023-02-15T13:24:40.230Z,33.05
2023-02-15T13:27:15.770Z,35.95
2023-02-15T13:29:47.877Z,27.65
2023-02-15T13:32:26.920Z,27.83
2023-02-15T13:34:58.158Z,35.55
2023-02-15T13:37:50.962Z,30.65
2023-02-15T13:40:30.144Z,27.75
2023-02-15T13:43:26.031Z,32.15
2023-02-15T13:46:14.536Z,26.88
2023-02-15T13:49:17.826Z,33.42
2023-02-15T13:52:07.087Z,30.80
2023-02-15T13:54:58.939Z,33.10
2023-02-15T13:57:55.132Z,33.10
2023-02-15T14:00:31.258Z,37.67
2023-02-15T14:03:28.716Z,30.25
2023-02-15T14:06:24.658Z,30.02
2023-02-15T14:09:01.771Z,27.43
2023-02-15T14:11:49.786Z,26.42
2023-02-15T14:14:19.611Z,30.95
2023-02-15T14:17:06.204Z,26.75
2023-02-15T14:19:51.986Z,34.90
2023-02-15T14:22:40.032Z,28.13
2023-02-15T14:25:29.887Z,31.40
2023-02-15T14:28:16.076Z,30.15
2023-02-15T14:30:49.469Z,29.85
2023-02-15T14:33:43.980Z,30.55
2023-02-15T14:36:20.584Z,31.70
2023-02-15T14:39:41.380Z,31.40
2023-02-15T14:42:37.893Z,30.50
2023-02-15T14:45:16.877Z,38.22
2023-02-15T14:47:53.230Z,38.88
2023-02-15T14:50:33.224Z,30.33
2023-02-15T14:53:22.448Z,27.17
2023-02-15T14:56:05.950Z,31.42
2023-02-15T14:58:33.192Z,39.22
2023-02-15T15:01:12.104Z,28.40
2023-02-15T15:03:54.264Z,31.10
2023-02-15T15:06:58.556Z,26.85
2023-02-15T15:09:30.862Z,33.08
2023-02-15T15:12:23.051Z,55.50
2023-02-15T15:14:51.820Z,48.35
2023-02-15T15:17:56.332Z,35.83
2023-02-15T15:20:52.234Z,29.38
2023-02-15T15:23:19.512Z,30.38
2023-02-15T15:25:57.607Z,31.23
2023-02-15T15:28:36.951Z,40.58
2023-02-15T15:31:27.032Z,29.75
2023-02-15T15:34:13.184Z,32.65
2023-02-15T15:36:43.037Z,29.13
2023-02-15T15:39:53.333Z,35.38
2023-02-15T15:42:29.780Z,31.27
2023-02-15T15:45:31.240Z,27.42
2023-02-15T15:48:22.992Z,32.13
2023-02-15T15:50:55.780Z,28.33
2023-02-15T15:53:26.837Z,26.83
2023-02-15T15:56:02.791Z,27.60
2023-02-15T15:58:33.721Z,34.72
2023-02-15T16:01:04.790Z,31.45
2023-02-15T16:03:31.849Z,42.10
2023-02-15T16:06:02.088Z,28.73
2023-02-15T16:08:34.241Z,29.73
2023-02-15T16:11:15.115Z,30.50
2023-02-15T16:13:46.429Z,32.10
2023-02-15T16:16:21.026Z,29.77
2023-02-15T16:18:49.103Z,33.55
2023-02-15T16:21:28.031Z,30.38
2023-02-15T16:24:25.418Z,35.85
2023-02-15T16:27:11.765Z,35.10
2023-02-15T16:29:39.217Z,33.97
2023-02-15T16:32:20.594Z,35.38
2023-02-15T16:34:56.710Z,27.42
2023-02-15T16:37:28.605Z,33.95
2023-02-15T16:39:56.693Z,28.20
2023-02-15T16:42:26.196Z,34.92
2023-02-15T16:45:09.514Z,33.20
2023-02-15T16:47:42.718Z,33.33
2023-02-15T16:50:40.039Z,31.52
2023-02-15T16:53:15.805Z,33.78
2023-02-15T16:55:58.284Z,27.73
2023-02-15T16:58:46.694Z,36.47
2023-02-15T17:01:17.364Z,34.70
2023-02-15T17:03:45.180Z,33.45
2023-02-15T17:06:28.059Z,34.45
2023-02-15T17:09:14.586Z,34.78
2023-02-15T17:11:44.753Z,37.65
2023-02-15T17:14:15.888Z,35.15
2023-02-15T17:16:50.232Z,34.10
2023-02-15T17:19:51.146Z,35.88
2023-02-15T17:22:22.634Z,34.47
2023-02-15T17:24:59.128Z,33.05
2023-02-15T17:27:28.752Z,35.33
2023-02-15T17:30:03.697Z,32.53
2023-02-15T17:32:36.089Z,32.65
2023-02-15T17:35:10.047Z,39.58
2023-02-15T17:37:37.990Z,32.72
2023-02-15T17:40:28.522Z,37.88
2023-02-15T17:42:56.461Z,35.03
2023-02-15T17:45:29.536Z,36.83
2023-02-15T17:48:00.377Z,40.85
2023-02-15T17:50:28.917Z,36.08
2023-02-15T17:53:00.155Z,37.00
2023-02-15T17:55:39.688Z,34.17
2023-02-15T17:58:13.455Z,33.17
2023-02-15T18:01:09.180Z,41.95
2023-02-15T18:04:04.316Z,41.15
2023-02-15T18:06:52.152Z,35.42
2023-02-15T18:09:40.151Z,33.33
2023-02-15T18:12:23.010Z,39.92
2023-02-15T18:14:52.962Z,41.85
2023-02-15T18:17:38.150Z,39.88
2023-02-15T18:20:18.750Z,38.53
2023-02-15T18:22:50.167Z,45.78
2023-02-15T18:25:27.351Z,43.83
2023-02-15T18:27:55.632Z,39.40
2023-02-15T18:30:27.370Z,37.80
2023-02-15T18:33:00.864Z,36.55
2023-02-15T18:35:33.903Z,38.28
2023-02-15T18:38:02.990Z,40.42
2023-02-15T18:40:33.180Z,36.40
2023-02-15T18:43:01.122Z,40.78
2023-02-15T18:45:39.580Z,46.38
2023-02-15T18:48:28.690Z,37.00
2023-02-15T18:50:58.024Z,49.75
2023-02-15T18:53:26.485Z,61.05
2023-02-15T18:55:54.715Z,38.92
2023-02-15T18:58:28.748Z,39.92
2023-02-15T19:00:59.642Z,37.90
2023-02-15T19:03:28.143Z,35.17
2023-02-15T19:05:56.517Z,53.38
2023-02-15T19:08:27.743Z,38.55
2023-02-15T19:10:56.798Z,40.53
2023-02-15T19:13:25.261Z,39.22
2023-02-15T19:15:54.610Z,40.45
2023-02-15T19:18:22.768Z,40.50
2023-02-15T19:20:54.206Z,40.03
2023-02-15T19:23:25.436Z,42.00
2023-02-15T19:25:57.413Z,38.33
2023-02-15T19:28:35.355Z,40.47
2023-02-15T19:31:05.564Z,45.80
2023-02-15T19:33:33.622Z,40.47
2023-02-15T19:36:01.755Z,45.30
2023-02-15T19:38:37.331Z,42.28
2023-02-15T19:41:16.566Z,50.47
2023-02-15T19:43:57.287Z,50.15
2023-02-15T19:46:28.456Z,44.38
2023-02-15T19:48:57.173Z,42.88
2023-02-15T19:51:26.263Z,41.58
2023-02-15T19:53:55.703Z,46.20
2023-02-15T19:56:25.823Z,42.85
2023-02-15T19:58:55.895Z,46.72
2023-02-15T20:01:26.234Z,41.35
2023-02-15T20:03:56.963Z,48.92
2023-02-15T20:06:25.232Z,41.40
2023-02-15T20:08:54.206Z,48.45
2023-02-15T20:11:22.685Z,40.53
2023-02-15T20:13:51.747Z,41.63
2023-02-15T20:16:20.966Z,49.78
2023-02-15T20:18:49.364Z,38.38
2023-02-15T20:21:19.480Z,43.65
2023-02-15T20:23:47.784Z,36.35
2023-02-15T20:26:20.175Z,38.40
2023-02-15T20:28:49.491Z,42.17
2023-02-15T20:31:21.229Z,46.25
2023-02-15T20:33:50.873Z,43.20
2023-02-15T20:36:23.930Z,42.55
2023-02-15T20:38:52.439Z,46.17
2023-02-15T20:41:41.466Z,38.42
2023-02-15T20:44:30.302Z,47.17
2023-02-15T20:47:00.979Z,46.90
2023-02-15T20:49:33.343Z,43.08
2023-02-15T20:52:11.920Z,47.25
2023-02-15T20:54:41.686Z,47.97
2023-02-15T20:57:14.279Z,44.17
2023-02-15T20:59:43.917Z,48.90
2023-02-15T21:02:26.007Z,44.13
2023-02-15T21:04:55.746Z,42.85
2023-02-15T21:07:24.736Z,42.85
2023-02-15T21:09:54.988Z,40.08
2023-02-15T21:12:25.034Z,41.92
2023-02-15T21:14:54.729Z,41.28
2023-02-15T21:17:23.094Z,42.55
2023-02-15T21:19:51.907Z,40.83
2023-02-15T21:22:22.900Z,45.10
2023-02-15T21:24:56.591Z,45.03
2023-02-15T21:27:24.769Z,40.97
2023-02-15T21:29:52.494Z,42.80
2023-02-15T21:32:20.768Z,45.22
2023-02-15T21:34:49.038Z,40.42
2023-02-15T21:37:33.199Z,36.63
2023-02-15T21:40:01.042Z,41.13
2023-02-15T21:42:47.558Z,46.95
2023-02-15T21:45:37.511Z,46.80
2023-02-15T21:48:05.498Z,53.97
2023-02-15T21:50:53.287Z,51.92
2023-02-15T21:53:28.651Z,46.58
2023-02-15T21:55:58.372Z,47.47
2023-02-15T21:58:28.460Z,48.33
2023-02-15T22:00:58.065Z,46.10
2023-02-15T22:03:30.305Z,49.00
2023-02-15T22:05:57.654Z,45.63
2023-02-15T22:08:24.871Z,41.33
2023-02-15T22:10:54.937Z,39.03
2023-02-15T22:13:30.856Z,42.05
2023-02-15T22:15:59.128Z,35.78
2023-02-15T22:18:31.371Z,38.25
2023-02-15T22:21:00.964Z,42.47
2023-02-15T22:23:28.132Z,36.33
2023-02-15T22:26:03.089Z,39.42
2023-02-15T22:28:36.262Z,32.78
2023-02-15T22:31:04.934Z,35.70
2023-02-15T22:33:34.115Z,36.78
2023-02-15T22:36:02.041Z,46.17
2023-02-15T22:38:29.871Z,35.97
2023-02-15T22:41:04.463Z,36.58
2023-02-15T22:43:41.236Z,38.15
2023-02-15T22:46:16.665Z,39.25
2023-02-15T22:48:45.482Z,38.58
2023-02-15T22:51:17.924Z,39.45
2023-02-15T22:53:45.000Z,39.50
2023-02-15T22:56:21.482Z,40.88
2023-02-15T22:58:50.596Z,41.03
2023-02-15T23:01:31.110Z,37.00
2023-02-15T23:03:59.144Z,39.30
2023-02-15T23:06:28.028Z,40.00
2023-02-15T23:08:55.036Z,37.53
2023-02-15T23:11:22.145Z,36.17
2023-02-15T23:13:50.328Z,37.22
2023-02-15T23:16:18.349Z,39.35
2023-02-15T23:18:47.229Z,42.08
2023-02-15T23:21:30.338Z,40.05
2023-02-15T23:24:22.388Z,32.30
2023-02-15T23:26:50.312Z,38.50
2023-02-15T23:29:20.730Z,41.40
2023-02-15T23:31:51.507Z,36.17
2023-02-15T23:34:36.883Z,48.30
2023-02-15T23:37:04.003Z,44.92
2023-02-15T23:39:49.885Z,39.72
2023-02-15T23:42:21.397Z,47.25
2023-02-15T23:44:49.621Z,41.05
2023-02-15T23:47:54.397Z,45.40
2023-02-15T23:50:30.979Z,35.28
2023-02-15T23:52:58.758Z,50.67
2023-02-15T23:55:36.225Z,36.42
2023-02-15T23:58:06.576Z,43.55
